createdAt,value
2019-05-17T00:00:02.652Z,32.65
2019-05-17T00:01:02.639Z,32.44
2019-05-17T00:02:02.633Z,32.64
2019-05-17T00:03:02.635Z,33.44
2019-05-17T00:04:02.620Z,32.64
2019-05-17T00:05:02.617Z,32.54
2019-05-17T00:06:02.607Z,33.26
2019-05-17T00:07:02.611Z,32.56
2019-05-17T00:08:02.604Z,32.46
2019-05-17T00:09:02.583Z,32.54
2019-05-17T00:10:02.595Z,33.06
2019-05-17T00:11:02.567Z,32.94
2019-05-17T00:12:02.563Z,32.54
2019-05-17T00:13:02.552Z,32.64
2019-05-17T00:14:02.547Z,32.54
2019-05-17T00:15:02.535Z,32.56
2019-05-17T00:16:02.543Z,33.04
2019-05-17T00:17:02.542Z,32.64
2019-05-17T00:18:02.513Z,32.65
2019-05-17T00:19:02.594Z,32.54
2019-05-17T00:20:02.501Z,33.44
2019-05-17T00:21:02.506Z,32.44
2019-05-17T00:22:02.506Z,32.46
2019-05-17T00:23:02.503Z,33.06
2019-05-17T00:24:02.496Z,33.56
2019-05-17T00:25:02.487Z,33.24
2019-05-17T00:26:02.470Z,32.96
2019-05-17T00:27:02.468Z,33.24
2019-05-17T00:28:02.458Z,32.65
2019-05-17T00:29:02.457Z,33.64
2019-05-17T00:30:02.458Z,33.16
2019-05-17T00:31:02.434Z,32.74
2019-05-17T00:32:02.423Z,33.66
2019-05-17T00:33:02.422Z,32.86
2019-05-17T00:34:02.417Z,33.36
2019-05-17T00:35:02.429Z,32.56
2019-05-17T00:36:02.427Z,33.16
2019-05-17T00:37:02.412Z,33.24
2019-05-17T00:38:02.405Z,33.36
2019-05-17T00:39:02.420Z,33.24
2019-05-17T00:40:02.384Z,32.76
2019-05-17T00:41:02.463Z,32.96
2019-05-17T00:42:02.365Z,33.36
2019-05-17T00:43:02.359Z,33.36
2019-05-17T00:44:02.347Z,33.14
2019-05-17T00:45:02.352Z,33.26
2019-05-17T00:46:02.332Z,33.36
2019-05-17T00:47:02.330Z,32.44
2019-05-17T00:48:02.316Z,33.14
2019-05-17T00:49:02.311Z,33.16
2019-05-17T00:50:02.316Z,33.36
2019-05-17T00:51:02.589Z,32.94
2019-05-17T00:52:02.313Z,32.86
2019-05-17T00:53:02.296Z,33.24
2019-05-17T00:54:02.290Z,32.96
2019-05-17T00:55:02.284Z,33.26
2019-05-17T00:56:02.278Z,33.46
2019-05-17T00:57:02.272Z,33.34
2019-05-17T00:58:02.286Z,33.36
2019-05-17T00:59:02.263Z,33.36
2019-05-17T01:00:02.273Z,33.26
2019-05-17T01:01:02.280Z,33.26
2019-05-17T01:02:02.289Z,33.84
2019-05-17T01:03:02.257Z,33.06
2019-05-17T01:04:02.246Z,33.26
2019-05-17T01:05:02.249Z,33.46
2019-05-17T01:06:02.236Z,33.34
2019-05-17T01:07:02.234Z,33.44
2019-05-17T01:08:02.234Z,33.44
2019-05-17T01:09:04.197Z,33.06
2019-05-17T01:10:02.206Z,33.26
2019-05-17T01:11:02.199Z,33.46
2019-05-17T01:12:02.194Z,33.36
2019-05-17T01:13:02.184Z,33.14
2019-05-17T01:14:02.273Z,33.46
2019-05-17T01:15:02.173Z,33.26
2019-05-17T01:16:02.163Z,33.86
2019-05-17T01:17:02.153Z,33.34
2019-05-17T01:18:02.139Z,33.26
2019-05-17T01:19:02.134Z,33.36
2019-05-17T01:20:02.135Z,33.36
2019-05-17T01:21:02.123Z,33.46
2019-05-17T01:22:02.109Z,33.66
2019-05-17T01:23:02.097Z,33.64
2019-05-17T01:24:02.094Z,33.46
2019-05-17T01:25:02.092Z,33.46
2019-05-17T01:26:02.079Z,33.46
2019-05-17T01:27:02.083Z,33.44
2019-05-17T01:28:02.067Z,33.46
2019-05-17T01:29:02.055Z,33.46
2019-05-17T01:30:02.055Z,33.46
2019-05-17T01:31:02.057Z,33.46
2019-05-17T01:32:02.052Z,33.86
2019-05-17T01:33:02.056Z,33.46
2019-05-17T01:34:02.033Z,33.66
2019-05-17T01:35:02.033Z,33.66
2019-05-17T01:36:02.022Z,33.86
2019-05-17T01:37:02.014Z,33.86
2019-05-17T01:38:02.003Z,33.56
2019-05-17T01:39:14.286Z,33.66
2019-05-17T01:40:03.074Z,33.86
2019-05-17T01:41:01.981Z,33.66
2019-05-17T01:42:01.974Z,33.86
2019-05-17T01:43:01.965Z,33.66
2019-05-17T01:44:01.955Z,33.86
2019-05-17T01:45:01.949Z,33.56
2019-05-17T01:46:01.953Z,33.66
2019-05-17T01:47:01.938Z,33.86
2019-05-17T01:48:01.923Z,33.56
2019-05-17T01:49:01.918Z,33.86
2019-05-17T01:50:02.113Z,33.46
2019-05-17T01:51:01.997Z,33.86
2019-05-17T01:52:01.926Z,33.86
2019-05-17T01:53:01.894Z,33.26
2019-05-17T01:54:01.886Z,33.84
2019-05-17T01:55:01.874Z,33.66
2019-05-17T01:56:01.868Z,33.56
2019-05-17T01:57:01.877Z,33.46
2019-05-17T01:58:01.857Z,33.46
2019-05-17T01:59:01.867Z,33.46
2019-05-17T02:00:01.902Z,33.86
2019-05-17T02:01:01.851Z,33.66
2019-05-17T02:02:01.844Z,33.46
2019-05-17T02:03:01.843Z,33.86
2019-05-17T02:04:01.857Z,33.36
2019-05-17T02:05:01.838Z,33.56
2019-05-17T02:06:01.813Z,33.46
2019-05-17T02:07:01.817Z,33.56
2019-05-17T02:08:01.803Z,33.86
2019-05-17T02:09:01.792Z,34.06
2019-05-17T02:10:01.869Z,33.96
2019-05-17T02:11:01.792Z,33.86
2019-05-17T02:12:01.770Z,33.56
2019-05-17T02:13:01.767Z,33.86
2019-05-17T02:14:01.757Z,33.56
2019-05-17T02:15:01.765Z,33.84
2019-05-17T02:16:01.744Z,33.56
2019-05-17T02:17:01.757Z,33.66
2019-05-17T02:18:01.737Z,33.26
2019-05-17T02:19:01.754Z,33.56
2019-05-17T02:20:01.726Z,33.14
2019-05-17T02:21:01.716Z,33.66
2019-05-17T02:22:01.711Z,33.46
2019-05-17T02:23:01.729Z,33.86
2019-05-17T02:24:01.711Z,33.86
2019-05-17T02:25:01.878Z,33.46
2019-05-17T02:26:01.676Z,33.66
2019-05-17T02:27:01.672Z,34.16
2019-05-17T02:28:01.938Z,33.56
2019-05-17T02:29:01.669Z,33.26
2019-05-17T02:30:02.883Z,33.34
2019-05-17T02:31:03.450Z,33.56
2019-05-17T02:32:03.858Z,34.06
2019-05-17T02:33:03.762Z,33.56
2019-05-17T02:34:03.074Z,34.06
2019-05-17T02:35:03.242Z,33.86
2019-05-17T02:36:02.712Z,33.56
2019-05-17T02:37:02.997Z,33.86
2019-05-17T02:38:02.881Z,33.76
2019-05-17T02:39:03.613Z,33.46
2019-05-17T02:40:04.506Z,33.46
2019-05-17T02:41:03.383Z,33.74
2019-05-17T02:42:02.779Z,33.36
2019-05-17T02:43:03.186Z,33.76
2019-05-17T02:44:02.351Z,33.86
2019-05-17T02:45:03.008Z,33.46
2019-05-17T02:46:03.803Z,33.46
2019-05-17T02:47:03.120Z,33.86
2019-05-17T02:48:03.662Z,33.46
2019-05-17T02:49:03.031Z,33.86
2019-05-17T02:50:05.189Z,33.86
2019-05-17T02:51:03.592Z,33.46
2019-05-17T02:52:03.324Z,33.46
2019-05-17T02:53:04.442Z,33.86
2019-05-17T02:54:04.045Z,33.56
2019-05-17T02:55:04.066Z,33.86
2019-05-17T02:56:03.207Z,33.56
2019-05-17T02:57:03.300Z,33.56
2019-05-17T02:58:03.024Z,33.56
2019-05-17T02:59:03.595Z,33.66
2019-05-17T03:00:04.514Z,33.46
2019-05-17T03:01:03.627Z,33.46
2019-05-17T03:02:03.553Z,33.46
2019-05-17T03:03:03.489Z,33.36
2019-05-17T03:04:03.926Z,33.16
2019-05-17T03:05:04.056Z,33.46
2019-05-17T03:06:03.018Z,33.66
2019-05-17T03:07:03.869Z,33.76
2019-05-17T03:08:03.943Z,33.46
2019-05-17T03:09:03.334Z,33.56
2019-05-17T03:10:17.034Z,33.66
2019-05-17T03:11:03.506Z,33.46
2019-05-17T03:12:03.444Z,33.86
2019-05-17T03:13:03.936Z,33.26
2019-05-17T03:14:03.972Z,32.96
2019-05-17T03:15:04.116Z,33.36
2019-05-17T03:16:03.542Z,33.16
2019-05-17T03:17:03.254Z,33.86
2019-05-17T03:18:03.887Z,33.66
2019-05-17T03:19:04.216Z,33.86
2019-05-17T03:20:04.006Z,33.66
2019-05-17T03:21:03.783Z,33.66
2019-05-17T03:22:07.152Z,33.66
2019-05-17T03:23:03.825Z,33.36
2019-05-17T03:24:03.122Z,33.86
2019-05-17T03:25:03.486Z,33.76
2019-05-17T03:26:03.746Z,33.36
2019-05-17T03:27:03.003Z,33.36
2019-05-17T03:28:02.893Z,33.86
2019-05-17T03:29:03.439Z,33.66
2019-05-17T03:30:04.119Z,33.06
2019-05-17T03:31:06.886Z,33.66
2019-05-17T03:32:08.391Z,33.16
2019-05-17T03:33:06.906Z,33.56
2019-05-17T03:34:06.479Z,33.26
2019-05-17T03:35:07.172Z,33.16
2019-05-17T03:36:06.362Z,33.66
2019-05-17T03:37:06.474Z,33.16
2019-05-17T03:38:03.713Z,33.26
2019-05-17T03:39:03.062Z,33.16
2019-05-17T03:40:02.977Z,33.16
2019-05-17T03:41:13.467Z,33.86
2019-05-17T03:42:02.817Z,33.26
2019-05-17T03:43:02.782Z,33.76
2019-05-17T03:44:03.328Z,33.16
2019-05-17T03:45:02.963Z,33.26
2019-05-17T03:46:02.760Z,33.26
2019-05-17T03:47:02.365Z,33.26
2019-05-17T03:48:04.966Z,33.26
2019-05-17T03:49:03.943Z,33.06
2019-05-17T03:50:03.237Z,33.16
2019-05-17T03:51:02.620Z,33.06
2019-05-17T03:52:02.824Z,33.06
2019-05-17T03:53:02.358Z,33.06
2019-05-17T03:54:02.369Z,33.26
2019-05-17T03:55:03.890Z,33.26
2019-05-17T03:56:02.924Z,32.86
2019-05-17T03:57:02.913Z,33.26
2019-05-17T03:58:03.237Z,33.36
2019-05-17T03:59:03.683Z,32.96
2019-05-17T04:00:03.818Z,33.16
2019-05-17T04:01:04.130Z,33.06
2019-05-17T04:02:03.235Z,33.16
2019-05-17T04:03:02.961Z,32.96
2019-05-17T04:04:02.923Z,33.26
2019-05-17T04:05:04.270Z,33.46
2019-05-17T04:06:03.834Z,33.06
2019-05-17T04:07:03.481Z,33.06
2019-05-17T04:08:03.617Z,33.26
2019-05-17T04:09:03.685Z,32.86
2019-05-17T04:10:04.177Z,33.06
2019-05-17T04:11:19.752Z,33.06
2019-05-17T04:12:02.863Z,33.16
2019-05-17T04:13:04.184Z,33.36
2019-05-17T04:14:03.036Z,33.26
2019-05-17T04:15:03.196Z,32.96
2019-05-17T04:16:05.686Z,33.16
2019-05-17T04:17:03.056Z,33.16
2019-05-17T04:18:04.190Z,33.16
2019-05-17T04:19:03.092Z,33.16
2019-05-17T04:20:03.274Z,33.46
2019-05-17T04:21:03.372Z,33.16
2019-05-17T04:22:03.537Z,33.16
2019-05-17T04:23:03.744Z,33.36
2019-05-17T04:24:03.237Z,33.56
2019-05-17T04:25:03.041Z,33.26
2019-05-17T04:26:03.790Z,33.56
2019-05-17T04:27:03.597Z,33.36
2019-05-17T04:28:02.761Z,33.16
2019-05-17T04:29:03.553Z,33.26
2019-05-17T04:30:03.696Z,33.06
2019-05-17T04:31:02.769Z,33.06
2019-05-17T04:32:03.971Z,33.16
2019-05-17T04:33:03.420Z,33.36
2019-05-17T04:34:03.084Z,33.26
2019-05-17T04:35:03.619Z,33.26
2019-05-17T04:36:02.581Z,33.06
2019-05-17T04:37:03.971Z,33.16
2019-05-17T04:38:04.129Z,33.26
2019-05-17T04:39:02.431Z,33.16
2019-05-17T04:40:03.465Z,33.36
2019-05-17T04:41:03.396Z,33.36
2019-05-17T04:42:03.936Z,33.56
2019-05-17T04:43:03.276Z,33.16
2019-05-17T04:44:02.723Z,32.86
2019-05-17T04:45:03.731Z,33.16
2019-05-17T04:46:02.710Z,33.56
2019-05-17T04:47:03.176Z,33.86
2019-05-17T04:48:03.678Z,33.36
2019-05-17T04:49:03.042Z,33.56
2019-05-17T04:50:03.895Z,33.36
2019-05-17T04:51:02.583Z,33.16
2019-05-17T04:52:03.591Z,32.76
2019-05-17T04:53:02.587Z,33.36
2019-05-17T04:54:03.170Z,33.26
2019-05-17T04:55:03.688Z,32.86
2019-05-17T04:56:03.086Z,33.16
2019-05-17T04:57:02.647Z,33.46
2019-05-17T04:58:04.024Z,32.96
2019-05-17T04:59:03.258Z,33.56
2019-05-17T05:00:04.094Z,32.56
2019-05-17T05:01:03.641Z,33.36
2019-05-17T05:02:03.078Z,33.36
2019-05-17T05:03:03.482Z,33.96
2019-05-17T05:04:03.654Z,33.86
2019-05-17T05:05:03.317Z,33.56
2019-05-17T05:06:03.009Z,33.56
2019-05-17T05:07:03.166Z,33.36
2019-05-17T05:08:02.959Z,32.76
2019-05-17T05:09:02.595Z,33.26
2019-05-17T05:10:02.936Z,33.56
2019-05-17T05:11:03.682Z,33.56
2019-05-17T05:12:05.624Z,33.36
2019-05-17T05:13:03.069Z,33.46
2019-05-17T05:14:02.753Z,33.66
2019-05-17T05:15:03.374Z,32.86
2019-05-17T05:16:02.967Z,32.65
2019-05-17T05:17:02.605Z,33.56
2019-05-17T05:18:02.343Z,33.16
2019-05-17T05:19:02.935Z,33.56
2019-05-17T05:20:02.950Z,33.26
2019-05-17T05:21:03.213Z,33.66
2019-05-17T05:22:04.504Z,33.26
2019-05-17T05:23:02.609Z,33.26
2019-05-17T05:24:02.473Z,33.56
2019-05-17T05:25:02.156Z,33.26
2019-05-17T05:26:02.823Z,33.66
2019-05-17T05:27:02.606Z,33.26
2019-05-17T05:28:02.462Z,33.26
2019-05-17T05:29:02.104Z,32.65
2019-05-17T05:30:02.893Z,33.56
2019-05-17T05:31:01.896Z,33.36
2019-05-17T05:32:02.618Z,33.36
2019-05-17T05:33:01.983Z,33.26
2019-05-17T05:34:01.823Z,33.56
2019-05-17T05:35:02.906Z,33.66
2019-05-17T05:36:02.226Z,33.46
2019-05-17T05:37:02.117Z,33.46
2019-05-17T05:38:02.137Z,33.26
2019-05-17T05:39:02.381Z,33.56
2019-05-17T05:40:02.089Z,33.56
2019-05-17T05:41:01.849Z,33.56
2019-05-17T05:42:08.074Z,33.46
2019-05-17T05:43:02.386Z,33.56
2019-05-17T05:44:01.820Z,33.46
2019-05-17T05:45:02.915Z,33.66
2019-05-17T05:46:02.458Z,33.26
2019-05-17T05:47:02.118Z,33.56
2019-05-17T05:48:01.816Z,33.56
2019-05-17T05:49:01.845Z,33.46
2019-05-17T05:50:01.661Z,33.46
2019-05-17T05:51:03.012Z,33.66
2019-05-17T05:52:01.944Z,33.96
2019-05-17T05:53:01.935Z,33.66
2019-05-17T05:54:01.693Z,33.56
2019-05-17T05:55:01.485Z,33.56
2019-05-17T05:56:03.322Z,33.36
2019-05-17T05:57:02.310Z,33.56
2019-05-17T05:58:02.816Z,34.16
2019-05-17T05:59:02.689Z,33.36
2019-05-17T06:00:02.308Z,33.56
2019-05-17T06:01:02.326Z,33.66
2019-05-17T06:02:01.792Z,34.06
2019-05-17T06:03:04.041Z,33.76
2019-05-17T06:04:02.536Z,33.86
2019-05-17T06:05:01.934Z,33.56
2019-05-17T06:06:01.821Z,33.56
2019-05-17T06:07:02.742Z,32.96
2019-05-17T06:08:02.737Z,33.66
2019-05-17T06:09:02.578Z,33.36
2019-05-17T06:10:02.201Z,34.16
2019-05-17T06:11:02.171Z,33.56
2019-05-17T06:12:02.237Z,34.06
2019-05-17T06:13:02.966Z,34.06
2019-05-17T06:14:01.628Z,33.86
2019-05-17T06:15:02.562Z,33.96
2019-05-17T06:16:02.391Z,33.66
2019-05-17T06:17:02.765Z,33.56
2019-05-17T06:18:02.719Z,33.66
2019-05-17T06:19:02.181Z,33.96
2019-05-17T06:20:02.408Z,33.36
2019-05-17T06:21:02.706Z,34.06
2019-05-17T06:22:02.515Z,33.56
2019-05-17T06:23:02.412Z,34.06
2019-05-17T06:24:02.431Z,34.06
2019-05-17T06:25:03.462Z,33.66
2019-05-17T06:26:03.299Z,34.26
2019-05-17T06:27:01.930Z,33.56
2019-05-17T06:28:01.576Z,33.56
2019-05-17T06:29:02.570Z,34.06
2019-05-17T06:30:01.473Z,34.16
2019-05-17T06:31:02.638Z,33.66
2019-05-17T06:32:02.365Z,33.66
2019-05-17T06:33:02.262Z,34.06
2019-05-17T06:34:01.922Z,34.16
2019-05-17T06:35:01.936Z,33.54
2019-05-17T06:36:02.637Z,34.06
2019-05-17T06:37:02.310Z,33.86
2019-05-17T06:38:01.962Z,33.64
2019-05-17T06:39:02.113Z,33.96
2019-05-17T06:40:02.396Z,33.36
2019-05-17T06:41:01.610Z,33.46
2019-05-17T06:41:59.974Z,34.06
2019-05-17T06:43:03.942Z,34.06
2019-05-17T06:43:59.991Z,34.06
2019-05-17T06:45:02.127Z,33.56
2019-05-17T06:46:01.759Z,33.96
2019-05-17T06:47:02.436Z,34.06
2019-05-17T06:48:02.362Z,33.96
2019-05-17T06:49:02.825Z,34.06
2019-05-17T06:50:02.840Z,33.86
2019-05-17T06:51:02.288Z,33.46
2019-05-17T06:52:02.242Z,33.36
2019-05-17T06:53:02.921Z,33.86
2019-05-17T06:54:01.762Z,34.26
2019-05-17T06:55:03.494Z,33.26
2019-05-17T06:56:02.758Z,33.56
2019-05-17T06:57:03.058Z,34.06
2019-05-17T06:58:01.673Z,34.06
2019-05-17T06:58:59.868Z,33.56
2019-05-17T07:00:02.448Z,34.06
2019-05-17T07:01:00.860Z,34.06
2019-05-17T07:01:59.878Z,34.06
2019-05-17T07:03:00.733Z,34.05
2019-05-17T07:04:00.406Z,33.96
2019-05-17T07:05:01.403Z,33.46
2019-05-17T07:05:59.857Z,33.36
2019-05-17T07:07:00.189Z,33.84
2019-05-17T07:08:00.395Z,34.06
2019-05-17T07:09:00.965Z,33.54
2019-05-17T07:10:00.583Z,33.36
2019-05-17T07:10:59.908Z,33.46
2019-05-17T07:11:59.797Z,34.06
2019-05-17T07:13:01.985Z,34.06
2019-05-17T07:13:59.855Z,33.64
2019-05-17T07:15:01.528Z,34.05
2019-05-17T07:15:59.941Z,33.84
2019-05-17T07:16:59.778Z,33.94
2019-05-17T07:18:00.081Z,33.64
2019-05-17T07:18:59.890Z,34.05
2019-05-17T07:19:59.927Z,34.06
2019-05-17T07:21:02.894Z,33.34
2019-05-17T07:22:00.068Z,33.44
2019-05-17T07:23:00.502Z,34.05
2019-05-17T07:23:59.748Z,33.74
2019-05-17T07:24:59.929Z,33.84
2019-05-17T07:25:59.843Z,33.54
2019-05-17T07:26:59.727Z,33.96
2019-05-17T07:28:00.440Z,33.84
2019-05-17T07:28:59.745Z,33.54
2019-05-17T07:29:59.712Z,33.54
2019-05-17T07:30:59.916Z,33.56
2019-05-17T07:32:00.313Z,33.94
2019-05-17T07:33:00.517Z,33.56
2019-05-17T07:33:59.954Z,33.54
2019-05-17T07:35:00.035Z,33.56
2019-05-17T07:35:59.717Z,33.56
2019-05-17T07:36:59.808Z,33.44
2019-05-17T07:37:59.688Z,33.76
2019-05-17T07:39:00.764Z,33.44
2019-05-17T07:40:04.731Z,33.24
2019-05-17T07:41:00.628Z,33.34
2019-05-17T07:41:59.957Z,33.36
2019-05-17T07:43:09.735Z,32.65
2019-05-17T07:44:00.683Z,33.44
2019-05-17T07:45:00.491Z,33.84
2019-05-17T07:46:00.459Z,33.24
2019-05-17T07:47:00.174Z,32.64
2019-05-17T07:48:00.125Z,33.54
2019-05-17T07:49:00.354Z,33.84
2019-05-17T07:50:00.970Z,33.24
2019-05-17T07:50:59.543Z,33.14
2019-05-17T07:52:00.707Z,33.54
2019-05-17T07:53:00.657Z,33.54
2019-05-17T07:53:59.824Z,33.34
2019-05-17T07:55:02.485Z,33.14
2019-05-17T07:55:59.819Z,32.64
2019-05-17T07:57:00.257Z,33.84
2019-05-17T07:58:00.250Z,33.43
2019-05-17T07:59:00.069Z,33.33
2019-05-17T08:00:00.101Z,33.62
2019-05-17T08:01:02.017Z,33.53
2019-05-17T08:01:59.799Z,33.53
2019-05-17T08:02:59.926Z,33.62
2019-05-17T08:04:00.650Z,33.83
2019-05-17T08:05:00.473Z,33.43
2019-05-17T08:06:00.131Z,33.33
2019-05-17T08:06:59.887Z,32.53
2019-05-17T08:08:00.128Z,33.33
2019-05-17T08:09:03.517Z,32.53
2019-05-17T08:10:00.130Z,32.43
2019-05-17T08:11:00.345Z,32.62
2019-05-17T08:11:59.818Z,33.23
2019-05-17T08:12:59.896Z,32.41
2019-05-17T08:13:59.819Z,33.12
2019-05-17T08:14:59.967Z,32.93
2019-05-17T08:15:59.562Z,32.71
2019-05-17T08:16:59.835Z,32.61
2019-05-17T08:18:01.845Z,33.21
2019-05-17T08:19:00.335Z,32.61
2019-05-17T08:20:00.557Z,33.01
2019-05-17T08:20:59.856Z,32.81
2019-05-17T08:21:59.745Z,32.81
2019-05-17T08:22:59.612Z,32.91
2019-05-17T08:24:00.139Z,32.81
2019-05-17T08:25:00.061Z,32.71
2019-05-17T08:26:00.499Z,32.71
2019-05-17T08:26:59.902Z,33.01
2019-05-17T08:27:59.534Z,32.70
2019-05-17T08:29:00.769Z,33.09
2019-05-17T08:29:59.873Z,32.79
2019-05-17T08:31:01.128Z,33.21
2019-05-17T08:32:00.373Z,33.00
2019-05-17T08:33:00.877Z,32.89
2019-05-17T08:34:00.107Z,33.39
2019-05-17T08:35:00.285Z,33.39
2019-05-17T08:35:59.747Z,32.89
2019-05-17T08:37:01.035Z,32.89
2019-05-17T08:38:00.525Z,32.89
2019-05-17T08:38:59.694Z,33.00
2019-05-17T08:40:00.070Z,32.70
2019-05-17T08:41:00.667Z,32.89
2019-05-17T08:42:01.372Z,32.89
2019-05-17T08:43:00.147Z,33.39
2019-05-17T08:44:00.722Z,33.09
2019-05-17T08:45:00.201Z,32.29
2019-05-17T08:46:01.621Z,32.89
2019-05-17T08:46:59.506Z,32.79
2019-05-17T08:48:00.327Z,32.89
2019-05-17T08:49:00.320Z,32.89
2019-05-17T08:50:00.511Z,32.89
2019-05-17T08:51:00.193Z,32.70
2019-05-17T08:51:59.498Z,32.79
2019-05-17T08:52:59.965Z,32.70
2019-05-17T08:53:59.999Z,33.00
2019-05-17T08:55:00.409Z,31.88
2019-05-17T08:56:01.005Z,31.90
2019-05-17T08:57:00.673Z,31.90
2019-05-17T08:58:01.087Z,31.79
2019-05-17T08:59:00.754Z,32.50
2019-05-17T09:00:00.877Z,31.88
2019-05-17T09:01:00.303Z,32.18
2019-05-17T09:02:00.104Z,32.28
2019-05-17T09:03:00.066Z,32.38
2019-05-17T09:03:59.816Z,32.48
2019-05-17T09:05:00.487Z,32.18
2019-05-17T09:06:02.372Z,32.98
2019-05-17T09:07:00.065Z,32.88
2019-05-17T09:08:00.098Z,33.08
2019-05-17T09:09:00.818Z,32.68
2019-05-17T09:10:01.520Z,32.28
2019-05-17T09:11:00.343Z,32.59
2019-05-17T09:11:59.632Z,32.50
2019-05-17T09:12:59.719Z,33.00
2019-05-17T09:14:01.894Z,33.39
2019-05-17T09:15:00.419Z,32.78
2019-05-17T09:16:00.371Z,33.18
2019-05-17T09:17:00.419Z,32.89
2019-05-17T09:18:00.296Z,32.58
2019-05-17T09:19:00.488Z,32.59
2019-05-17T09:20:00.739Z,32.89
2019-05-17T09:21:00.292Z,33.08
2019-05-17T09:21:59.845Z,32.98
2019-05-17T09:23:00.031Z,32.68
2019-05-17T09:23:59.696Z,33.08
2019-05-17T09:24:59.584Z,33.18
2019-05-17T09:25:59.548Z,32.68
2019-05-17T09:26:59.872Z,32.48
2019-05-17T09:28:00.750Z,33.18
2019-05-17T09:29:01.329Z,32.78
2019-05-17T09:30:00.047Z,32.88
2019-05-17T09:30:59.905Z,32.89
2019-05-17T09:31:59.943Z,33.18
2019-05-17T09:33:00.285Z,32.68
2019-05-17T09:34:00.265Z,32.70
2019-05-17T09:35:00.418Z,32.70
2019-05-17T09:36:00.798Z,33.00
2019-05-17T09:37:00.330Z,32.59
2019-05-17T09:38:00.488Z,32.89
2019-05-17T09:39:00.102Z,32.29
2019-05-17T09:39:59.843Z,32.59
2019-05-17T09:40:59.917Z,32.70
2019-05-17T09:41:59.540Z,33.09
2019-05-17T09:43:00.500Z,33.20
2019-05-17T09:44:11.648Z,32.89
2019-05-17T09:45:00.355Z,33.29
2019-05-17T09:46:01.441Z,33.70
2019-05-17T09:46:59.492Z,33.39
2019-05-17T09:48:00.675Z,33.39
2019-05-17T09:49:01.210Z,33.29
2019-05-17T09:50:00.476Z,33.80
2019-05-17T09:50:59.913Z,33.80
2019-05-17T09:52:00.194Z,33.50
2019-05-17T09:53:00.030Z,33.29
2019-05-17T09:54:00.108Z,33.59
2019-05-17T09:55:00.481Z,33.29
2019-05-17T09:56:00.511Z,33.39
2019-05-17T09:57:00.435Z,33.80
2019-05-17T09:58:00.251Z,33.80
2019-05-17T09:59:00.461Z,33.80
2019-05-17T10:00:00.175Z,33.50
2019-05-17T10:01:01.376Z,33.50
2019-05-17T10:02:00.089Z,33.80
2019-05-17T10:03:00.098Z,33.29
2019-05-17T10:03:59.854Z,33.29
2019-05-17T10:04:59.879Z,33.80
2019-05-17T10:06:00.031Z,33.50
2019-05-17T10:06:59.395Z,33.50
2019-05-17T10:08:00.013Z,33.50
2019-05-17T10:09:00.270Z,33.39
2019-05-17T10:09:59.796Z,33.29
2019-05-17T10:11:06.021Z,33.59
2019-05-17T10:12:00.070Z,33.50
2019-05-17T10:13:00.228Z,33.29
2019-05-17T10:14:01.142Z,33.39
2019-05-17T10:15:00.493Z,33.50
2019-05-17T10:16:00.448Z,33.39
2019-05-17T10:17:00.321Z,33.39
2019-05-17T10:18:00.608Z,33.50
2019-05-17T10:19:00.115Z,33.39
2019-05-17T10:19:59.890Z,33.39
2019-05-17T10:20:59.844Z,33.80
2019-05-17T10:21:59.786Z,33.50
2019-05-17T10:22:59.565Z,33.39
2019-05-17T10:24:00.136Z,33.50
2019-05-17T10:25:00.338Z,33.80
2019-05-17T10:25:59.600Z,33.59
2019-05-17T10:26:59.529Z,33.09
2019-05-17T10:28:00.589Z,33.50
2019-05-17T10:28:59.424Z,33.39
2019-05-17T10:29:59.493Z,33.59
2019-05-17T10:31:02.071Z,33.59
2019-05-17T10:31:59.844Z,33.50
2019-05-17T10:33:00.063Z,33.50
2019-05-17T10:34:00.893Z,33.50
2019-05-17T10:35:00.362Z,33.50
2019-05-17T10:36:00.463Z,33.39
2019-05-17T10:36:58.413Z,33.50
2019-05-17T10:37:59.736Z,33.50
2019-05-17T10:38:59.223Z,33.39
2019-05-17T10:39:58.390Z,33.59
2019-05-17T10:40:58.401Z,33.09
2019-05-17T10:41:58.409Z,33.09
2019-05-17T10:43:00.562Z,33.20
2019-05-17T10:43:58.371Z,33.00
2019-05-17T10:44:59.932Z,33.00
2019-05-17T10:45:59.844Z,33.20
2019-05-17T10:46:58.343Z,33.59
2019-05-17T10:48:00.635Z,33.20
2019-05-17T10:48:58.328Z,33.70
2019-05-17T10:49:58.368Z,33.39
2019-05-17T10:51:00.346Z,33.09
2019-05-17T10:51:59.913Z,33.09
2019-05-17T10:53:00.449Z,33.00
2019-05-17T10:53:59.997Z,33.00
2019-05-17T10:54:59.923Z,33.39
2019-05-17T10:56:00.408Z,33.29
2019-05-17T10:56:59.717Z,33.29
2019-05-17T10:58:00.322Z,33.29
2019-05-17T10:59:00.153Z,33.29
2019-05-17T10:59:59.292Z,33.20
2019-05-17T11:01:00.605Z,33.78
2019-05-17T11:01:59.727Z,33.09
2019-05-17T11:03:00.412Z,32.59
2019-05-17T11:03:59.562Z,33.09
2019-05-17T11:05:00.737Z,33.29
2019-05-17T11:05:59.727Z,32.79
2019-05-17T11:06:59.632Z,33.00
2019-05-17T11:07:59.936Z,33.20
2019-05-17T11:08:59.483Z,32.79
2019-05-17T11:10:00.295Z,33.59
2019-05-17T11:10:59.674Z,33.09
2019-05-17T11:11:58.200Z,32.98
2019-05-17T11:12:58.203Z,33.09
2019-05-17T11:13:58.174Z,33.09
2019-05-17T11:15:10.565Z,33.29
2019-05-17T11:15:59.154Z,33.09
2019-05-17T11:16:58.248Z,33.18
2019-05-17T11:17:58.159Z,33.29
2019-05-17T11:18:58.152Z,33.18
2019-05-17T11:19:58.157Z,33.09
2019-05-17T11:20:58.134Z,32.98
2019-05-17T11:21:58.138Z,33.29
2019-05-17T11:22:58.136Z,33.50
2019-05-17T11:23:58.110Z,33.08
2019-05-17T11:24:58.102Z,33.09
2019-05-17T11:25:58.134Z,33.08
2019-05-17T11:26:58.088Z,33.70
2019-05-17T11:27:58.087Z,33.29
2019-05-17T11:28:58.065Z,33.58
2019-05-17T11:29:58.060Z,33.70
2019-05-17T11:30:58.053Z,33.09
2019-05-17T11:31:58.226Z,33.29
2019-05-17T11:32:58.057Z,33.09
2019-05-17T11:33:58.031Z,33.29
2019-05-17T11:34:58.022Z,33.28
2019-05-17T11:35:58.019Z,33.28
2019-05-17T11:36:58.023Z,33.18
2019-05-17T11:37:58.079Z,32.88
2019-05-17T11:38:58.066Z,33.68
2019-05-17T11:39:57.978Z,32.48
2019-05-17T11:40:58.002Z,33.29
2019-05-17T11:41:57.965Z,33.28
2019-05-17T11:42:57.958Z,32.79
2019-05-17T11:43:58.017Z,33.20
2019-05-17T11:44:57.943Z,33.20
2019-05-17T11:45:57.933Z,33.48
2019-05-17T11:46:57.954Z,33.29
2019-05-17T11:47:57.941Z,32.88
2019-05-17T11:48:57.922Z,33.39
2019-05-17T11:49:57.899Z,33.08
2019-05-17T11:50:57.907Z,33.00
2019-05-17T11:51:57.897Z,33.09
2019-05-17T11:52:57.888Z,32.58
2019-05-17T11:53:58.016Z,33.28
2019-05-17T11:54:57.893Z,33.58
2019-05-17T11:55:57.882Z,33.38
2019-05-17T11:56:57.882Z,33.50
2019-05-17T11:57:57.864Z,33.29
2019-05-17T11:58:57.862Z,33.39
2019-05-17T11:59:57.895Z,33.50
2019-05-17T12:00:57.841Z,33.20
2019-05-17T12:01:57.848Z,33.20
2019-05-17T12:02:57.854Z,33.08
2019-05-17T12:03:57.832Z,33.48
2019-05-17T12:04:57.828Z,34.39
2019-05-17T12:05:57.825Z,33.20
2019-05-17T12:06:57.807Z,33.39
2019-05-17T12:07:57.804Z,33.59
2019-05-17T12:08:57.816Z,33.39
2019-05-17T12:09:57.792Z,33.39
2019-05-17T12:10:57.950Z,33.50
2019-05-17T12:11:57.775Z,33.39
2019-05-17T12:12:57.766Z,33.29
2019-05-17T12:13:57.763Z,33.50
2019-05-17T12:14:57.749Z,34.00
2019-05-17T12:15:57.747Z,33.98
2019-05-17T12:16:57.733Z,33.58
2019-05-17T12:17:57.734Z,33.39
2019-05-17T12:18:57.740Z,33.89
2019-05-17T12:19:57.784Z,33.29
2019-05-17T12:20:57.707Z,34.00
2019-05-17T12:21:57.700Z,34.19
2019-05-17T12:22:57.698Z,33.28
2019-05-17T12:23:57.688Z,33.59
2019-05-17T12:24:57.737Z,33.48
2019-05-17T12:25:57.678Z,33.98
2019-05-17T12:26:57.672Z,33.50
2019-05-17T12:27:57.671Z,33.58
2019-05-17T12:28:57.647Z,34.09
2019-05-17T12:29:57.649Z,34.00
2019-05-17T12:30:57.635Z,33.80
2019-05-17T12:31:57.645Z,33.68
2019-05-17T12:32:57.626Z,33.89
2019-05-17T12:33:57.656Z,34.09
2019-05-17T12:34:57.600Z,33.80
2019-05-17T12:35:57.608Z,33.80
2019-05-17T12:36:57.591Z,33.80
2019-05-17T12:37:57.676Z,33.59
2019-05-17T12:38:57.571Z,33.78
2019-05-17T12:39:57.559Z,33.70
2019-05-17T12:40:57.576Z,33.89
2019-05-17T12:41:57.572Z,33.89
2019-05-17T12:42:57.533Z,33.80
2019-05-17T12:43:57.547Z,33.80
2019-05-17T12:44:57.524Z,33.80
2019-05-17T12:46:00.558Z,34.00
2019-05-17T12:46:57.507Z,34.00
2019-05-17T12:47:57.499Z,33.80
2019-05-17T12:48:57.520Z,33.70
2019-05-17T12:49:57.491Z,33.89
2019-05-17T12:50:57.474Z,34.09
2019-05-17T12:51:57.474Z,34.09